Terminal Aerodrome Forecast
Issued by NWS Jackson, MS

Home | Current Version | Previous Version | Text Only | Print | Product List | Glossary On
Versions: 1 2 3 4 5 6 7 8 9 10 11 12 13 14 15 16 17 18
000
FTUS44 KJAN 290530
TAFHBG
TAF
KHBG 290530Z 2906/3006 00000KT P6SM SKC
     FM291100 00000KT 4SM BR SCT025
     FM291300 27006KT P6SM SCT025
     FM291700 26007KT P6SM VCTS SCT025CB
     FM300000 20003KT P6SM BKN150=

USA.gov is the U.S. government's official web portal to all federal, state and local government web resources and services.